sensor_id;sensor_type;location;lat;lon;timestamp;pressure;altitude;pressure_sealevel;temperature;humidity
10518;BME280;5307;42.548;22.968;2022-11-20T00:02:13;93177.78;;;15.99;77.84
10518;BME280;5307;42.548;22.968;2022-11-20T00:04:40;93196.03;;;15.85;79.04
10518;BME280;5307;42.548;22.968;2022-11-20T00:07:07;93191.03;;;15.89;79.08
10518;BME280;5307;42.548;22.968;2022-11-20T00:09:33;93172.53;;;15.95;78.04
10518;BME280;5307;42.548;22.968;2022-11-20T00:12:02;93193.81;;;16.00;78.07
10518;BME280;5307;42.548;22.968;2022-11-20T00:14:28;93184.56;;;16.03;78.05
10518;BME280;5307;42.548;22.968;2022-11-20T00:16:55;93180.81;;;16.01;78.21
10518;BME280;5307;42.548;22.968;2022-11-20T00:19:22;93180.81;;;15.95;78.47
10518;BME280;5307;42.548;22.968;2022-11-20T00:21:49;93185.78;;;15.86;79.76
10518;BME280;5307;42.548;22.968;2022-11-20T00:24:16;93181.50;;;15.73;81.22
10518;BME280;5307;42.548;22.968;2022-11-20T00:26:43;93182.50;;;15.65;82.06
10518;BME280;5307;42.548;22.968;2022-11-20T00:29:11;93167.47;;;15.71;82.40
10518;BME280;5307;42.548;22.968;2022-11-20T00:31:38;93178.53;;;15.77;82.27
10518;BME280;5307;42.548;22.968;2022-11-20T00:34:05;93194.00;;;15.69;82.42
10518;BME280;5307;42.548;22.968;2022-11-20T00:36:33;93186.00;;;15.71;82.23
10518;BME280;5307;42.548;22.968;2022-11-20T00:39:00;93185.22;;;15.59;82.63
10518;BME280;5307;42.548;22.968;2022-11-20T00:41:28;93195.00;;;15.66;82.82
10518;BME280;5307;42.548;22.968;2022-11-20T00:43:56;93194.50;;;15.67;82.81
10518;BME280;5307;42.548;22.968;2022-11-20T00:46:26;93195.75;;;15.66;83.11
10518;BME280;5307;42.548;22.968;2022-11-20T00:48:53;93193.25;;;15.68;83.18
10518;BME280;5307;42.548;22.968;2022-11-20T00:51:22;93197.50;;;15.64;83.94
10518;BME280;5307;42.548;22.968;2022-11-20T00:53:49;93197.50;;;15.64;83.74
10518;BME280;5307;42.548;22.968;2022-11-20T00:56:18;93191.50;;;15.65;83.78
10518;BME280;5307;42.548;22.968;2022-11-20T00:58:46;93201.75;;;15.70;83.57
10518;BME280;5307;42.548;22.968;2022-11-20T01:01:15;93197.28;;;15.79;83.07
10518;BME280;5307;42.548;22.968;2022-11-20T01:10:20;93174.19;;;15.59;84.65
10518;BME280;5307;42.548;22.968;2022-11-20T01:12:47;93160.66;;;15.56;85.29
10518;BME280;5307;42.548;22.968;2022-11-20T01:15:34;93169.72;;;15.73;84.45
10518;BME280;5307;42.548;22.968;2022-11-20T01:18:01;93154.94;;;15.59;84.82
10518;BME280;5307;42.548;22.968;2022-11-20T01:20:28;93141.94;;;15.65;84.79
10518;BME280;5307;42.548;22.968;2022-11-20T01:22:55;93144.22;;;15.67;84.22
10518;BME280;5307;42.548;22.968;2022-11-20T01:25:23;93138.19;;;15.74;83.29
10518;BME280;5307;42.548;22.968;2022-11-20T01:27:50;93141.47;;;15.78;83.12
10518;BME280;5307;42.548;22.968;2022-11-20T01:30:17;93130.94;;;15.71;82.88
10518;BME280;5307;42.548;22.968;2022-11-20T01:32:44;93130.94;;;15.71;83.13
10518;BME280;5307;42.548;22.968;2022-11-20T01:35:11;93115.19;;;15.71;82.85
10518;BME280;5307;42.548;22.968;2022-11-20T01:37:37;93117.44;;;15.73;82.83
10518;BME280;5307;42.548;22.968;2022-11-20T01:40:05;93120.19;;;15.73;82.57
10518;BME280;5307;42.548;22.968;2022-11-20T01:42:33;93119.19;;;15.70;82.30
10518;BME280;5307;42.548;22.968;2022-11-20T01:45:50;93119.94;;;15.65;82.53
10518;BME280;5307;42.548;22.968;2022-11-20T01:48:22;93113.19;;;15.66;81.92
10518;BME280;5307;42.548;22.968;2022-11-20T01:50:51;93120.72;;;15.77;81.62
10518;BME280;5307;42.548;22.968;2022-11-20T01:53:21;93118.19;;;15.68;81.86
10518;BME280;5307;42.548;22.968;2022-11-20T01:55:53;93120.44;;;15.69;81.63
10518;BME280;5307;42.548;22.968;2022-11-20T01:58:29;93121.63;;;15.57;82.83
10518;BME280;5307;42.548;22.968;2022-11-20T02:00:59;93118.19;;;15.62;82.49
10518;BME280;5307;42.548;22.968;2022-11-20T02:03:26;93120.38;;;15.53;83.79
10518;BME280;5307;42.548;22.968;2022-11-20T02:05:57;93113.13;;;15.55;82.70
10518;BME280;5307;42.548;22.968;2022-11-20T02:08:28;93115.16;;;15.60;82.72
10518;BME280;5307;42.548;22.968;2022-11-20T02:10:55;93107.66;;;15.66;81.87
10518;BME280;5307;42.548;22.968;2022-11-20T02:13:42;93116.19;;;15.63;82.09
10518;BME280;5307;42.548;22.968;2022-11-20T02:16:14;93125.94;;;15.64;81.46
10518;BME280;5307;42.548;22.968;2022-11-20T02:18:42;93144.69;;;15.60;81.43
10518;BME280;5307;42.548;22.968;2022-11-20T02:21:14;93136.41;;;15.60;81.47
10518;BME280;5307;42.548;22.968;2022-11-20T02:26:41;93140.69;;;15.66;81.00
10518;BME280;5307;42.548;22.968;2022-11-20T02:29:09;93132.47;;;15.89;78.31
10518;BME280;5307;42.548;22.968;2022-11-20T02:31:41;93119.91;;;15.60;79.80
10518;BME280;5307;42.548;22.968;2022-11-20T02:34:09;93144.47;;;15.80;79.15
10518;BME280;5307;42.548;22.968;2022-11-20T02:36:36;93144.72;;;15.65;80.05
10518;BME280;5307;42.548;22.968;2022-11-20T02:39:07;93142.69;;;15.60;80.62
10518;BME280;5307;42.548;22.968;2022-11-20T02:41:37;93157.41;;;15.57;81.70
10518;BME280;5307;42.548;22.968;2022-11-20T02:44:05;93166.41;;;15.58;81.70
10518;BME280;5307;42.548;22.968;2022-11-20T02:46:32;93146.91;;;15.50;82.61
10518;BME280;5307;42.548;22.968;2022-11-20T02:49:00;93143.41;;;15.55;82.24
10518;BME280;5307;42.548;22.968;2022-11-20T02:51:27;93149.66;;;15.50;82.85
10518;BME280;5307;42.548;22.968;2022-11-20T02:53:54;93150.88;;;15.43;83.18
10518;BME280;5307;42.548;22.968;2022-11-20T02:56:22;93148.38;;;15.45;83.89
10518;BME280;5307;42.548;22.968;2022-11-20T02:58:49;93166.63;;;15.43;83.90
10518;BME280;5307;42.548;22.968;2022-11-20T03:01:16;93150.38;;;15.45;83.13
10518;BME280;5307;42.548;22.968;2022-11-20T03:03:43;93156.41;;;15.49;82.74
10518;BME280;5307;42.548;22.968;2022-11-20T03:06:10;93166.38;;;15.47;83.09
10518;BME280;5307;42.548;22.968;2022-11-20T03:08:37;93158.63;;;15.39;84.07
10518;BME280;5307;42.548;22.968;2022-11-20T03:11:05;93161.38;;;15.39;83.83
10518;BME280;5307;42.548;22.968;2022-11-20T03:13:34;93167.63;;;15.45;83.75
10518;BME280;5307;42.548;22.968;2022-11-20T03:16:06;93168.81;;;15.33;84.42
10518;BME280;5307;42.548;22.968;2022-11-20T03:18:33;93163.59;;;15.35;84.83
10518;BME280;5307;42.548;22.968;2022-11-20T03:21:00;93158.06;;;15.30;85.01
10518;BME280;5307;42.548;22.968;2022-11-20T03:23:29;93154.31;;;15.27;85.41
10518;BME280;5307;42.548;22.968;2022-11-20T03:25:55;93163.81;;;15.26;84.87
10518;BME280;5307;42.548;22.968;2022-11-20T03:28:22;93159.81;;;15.22;85.31
10518;BME280;5307;42.548;22.968;2022-11-20T03:30:50;93171.31;;;15.20;85.66
10518;BME280;5307;42.548;22.968;2022-11-20T03:33:17;93179.06;;;15.22;85.58
10518;BME280;5307;42.548;22.968;2022-11-20T03:35:44;93181.38;;;15.34;84.28
10518;BME280;5307;42.548;22.968;2022-11-20T03:38:11;93171.31;;;15.31;84.01
10518;BME280;5307;42.548;22.968;2022-11-20T03:40:37;93154.34;;;15.38;83.28
10518;BME280;5307;42.548;22.968;2022-11-20T03:43:04;93151.56;;;15.27;84.00
10518;BME280;5307;42.548;22.968;2022-11-20T03:45:31;93168.31;;;15.29;83.66
10518;BME280;5307;42.548;22.968;2022-11-20T03:47:59;93160.50;;;15.17;84.80
10518;BME280;5307;42.548;22.968;2022-11-20T03:50:26;93168.25;;;15.07;86.00
10518;BME280;5307;42.548;22.968;2022-11-20T03:52:52;93160.75;;;15.07;85.99
10518;BME280;5307;42.548;22.968;2022-11-20T03:55:19;93164.50;;;15.10;86.20
10518;BME280;5307;42.548;22.968;2022-11-20T04:04:36;93158.00;;;15.19;84.50
10518;BME280;5307;42.548;22.968;2022-11-20T04:07:04;93157.25;;;15.07;85.01
10518;BME280;5307;42.548;22.968;2022-11-20T04:09:30;93151.50;;;15.10;84.28
10518;BME280;5307;42.548;22.968;2022-11-20T04:11:57;93153.25;;;15.19;83.96
10518;BME280;5307;42.548;22.968;2022-11-20T04:14:24;93145.03;;;15.19;83.96
10518;BME280;5307;42.548;22.968;2022-11-20T04:16:51;93143.78;;;15.20;83.73
10518;BME280;5307;42.548;22.968;2022-11-20T04:19:18;93146.81;;;15.22;83.65
10518;BME280;5307;42.548;22.968;2022-11-20T04:21:46;93162.25;;;15.14;84.01
10518;BME280;5307;42.548;22.968;2022-11-20T04:24:12;93159.06;;;15.21;82.67
10518;BME280;5307;42.548;22.968;2022-11-20T04:26:41;93162.00;;;15.18;82.90
10518;BME280;5307;42.548;22.968;2022-11-20T04:29:10;93151.75;;;15.07;83.16
10518;BME280;5307;42.548;22.968;2022-11-20T04:31:37;93185.75;;;15.09;84.81
10518;BME280;5307;42.548;22.968;2022-11-20T04:34:06;93168.50;;;15.09;85.30
10518;BME280;5307;42.548;22.968;2022-11-20T04:36:33;93176.44;;;15.01;86.32
10518;BME280;5307;42.548;22.968;2022-11-20T04:39:04;93195.66;;;14.96;86.94
10518;BME280;5307;42.548;22.968;2022-11-20T04:41:33;93181.66;;;14.94;87.02
10518;BME280;5307;42.548;22.968;2022-11-20T04:44:02;93188.88;;;14.91;88.23
10518;BME280;5307;42.548;22.968;2022-11-20T04:46:31;93174.66;;;14.93;88.22
10518;BME280;5307;42.548;22.968;2022-11-20T04:48:58;93168.19;;;14.96;88.21
10518;BME280;5307;42.548;22.968;2022-11-20T04:51:25;93167.63;;;14.86;89.10
10518;BME280;5307;42.548;22.968;2022-11-20T04:53:53;93160.59;;;14.79;90.18
10518;BME280;5307;42.548;22.968;2022-11-20T04:56:21;93159.59;;;14.82;89.89
10518;BME280;5307;42.548;22.968;2022-11-20T04:58:48;93148.53;;;14.71;91.30
10518;BME280;5307;42.548;22.968;2022-11-20T05:01:17;93156.47;;;14.64;92.04
10518;BME280;5307;42.548;22.968;2022-11-20T05:03:44;93164.78;;;14.69;92.78
10518;BME280;5307;42.548;22.968;2022-11-20T05:06:12;93154.50;;;14.64;92.63
10518;BME280;5307;42.548;22.968;2022-11-20T05:08:40;93151.72;;;14.59;93.71
10518;BME280;5307;42.548;22.968;2022-11-20T05:11:09;93176.16;;;14.51;95.28
10518;BME280;5307;42.548;22.968;2022-11-20T05:13:39;93170.59;;;14.45;95.93
10518;BME280;5307;42.548;22.968;2022-11-20T05:16:07;93181.28;;;14.38;97.13
10518;BME280;5307;42.548;22.968;2022-11-20T05:18:35;93161.69;;;14.24;97.82
10518;BME280;5307;42.548;22.968;2022-11-20T05:21:02;93171.53;;;14.37;97.29
10518;BME280;5307;42.548;22.968;2022-11-20T05:23:30;93182.59;;;14.48;96.80
10518;BME280;5307;42.548;22.968;2022-11-20T05:25:57;93191.91;;;14.56;95.33
10518;BME280;5307;42.548;22.968;2022-11-20T05:28:25;93173.69;;;14.59;94.87
10518;BME280;5307;42.548;22.968;2022-11-20T05:30:53;93176.16;;;14.51;95.52
10518;BME280;5307;42.548;22.968;2022-11-20T05:33:21;93172.31;;;14.43;96.82
10518;BME280;5307;42.548;22.968;2022-11-20T05:35:47;93187.03;;;14.40;98.04
10518;BME280;5307;42.548;22.968;2022-11-20T05:38:14;93193.81;;;14.44;97.90
10518;BME280;5307;42.548;22.968;2022-11-20T05:40:41;93183.03;;;14.41;98.65
10518;BME280;5307;42.548;22.968;2022-11-20T05:43:08;93186.03;;;14.43;98.39
10518;BME280;5307;42.548;22.968;2022-11-20T05:45:35;93177.28;;;14.39;98.22
10518;BME280;5307;42.548;22.968;2022-11-20T05:48:03;93179.06;;;14.42;98.55
10518;BME280;5307;42.548;22.968;2022-11-20T05:50:30;93190.75;;;14.37;99.21
10518;BME280;5307;42.548;22.968;2022-11-20T05:52:58;93187.72;;;14.35;99.83
10518;BME280;5307;42.548;22.968;2022-11-20T05:55:25;93185.69;;;14.30;99.76
10518;BME280;5307;42.548;22.968;2022-11-20T05:57:52;93190.47;;;14.35;100.00
10518;BME280;5307;42.548;22.968;2022-11-20T06:00:20;93189.25;;;14.36;99.73
10518;BME280;5307;42.548;22.968;2022-11-20T06:02:46;93190.44;;;14.29;100.00
10518;BME280;5307;42.548;22.968;2022-11-20T06:05:15;93188.94;;;14.28;100.00
10518;BME280;5307;42.548;22.968;2022-11-20T06:07:41;93199.16;;;14.27;100.00
10518;BME280;5307;42.548;22.968;2022-11-20T06:10:09;93191.19;;;14.30;100.00
10518;BME280;5307;42.548;22.968;2022-11-20T06:12:36;93194.66;;;14.24;100.00
10518;BME280;5307;42.548;22.968;2022-11-20T06:15:03;93194.16;;;14.26;100.00
10518;BME280;5307;42.548;22.968;2022-11-20T06:17:30;93196.66;;;14.24;100.00
10518;BME280;5307;42.548;22.968;2022-11-20T06:19:57;93193.66;;;14.27;100.00
10518;BME280;5307;42.548;22.968;2022-11-20T06:22:25;93201.69;;;14.31;100.00
10518;BME280;5307;42.548;22.968;2022-11-20T06:24:52;93192.69;;;14.31;100.00
10518;BME280;5307;42.548;22.968;2022-11-20T06:27:19;93193.75;;;14.39;100.00
10518;BME280;5307;42.548;22.968;2022-11-20T06:29:45;93197.75;;;14.38;100.00
10518;BME280;5307;42.548;22.968;2022-11-20T06:32:12;93196.03;;;14.40;100.00
10518;BME280;5307;42.548;22.968;2022-11-20T06:34:39;93199.03;;;14.42;100.00
10518;BME280;5307;42.548;22.968;2022-11-20T06:37:06;93185.59;;;14.44;99.53
10518;BME280;5307;42.548;22.968;2022-11-20T06:39:34;93188.59;;;14.46;99.71
10518;BME280;5307;42.548;22.968;2022-11-20T06:42:01;93176.09;;;14.45;99.51
10518;BME280;5307;42.548;22.968;2022-11-20T06:44:28;93185.78;;;14.41;100.00
10518;BME280;5307;42.548;22.968;2022-11-20T06:46:54;93181.75;;;14.36;100.00
10518;BME280;5307;42.548;22.968;2022-11-20T06:49:21;93181.00;;;14.36;100.00
10518;BME280;5307;42.548;22.968;2022-11-20T06:51:48;93182.22;;;14.35;100.00
10518;BME280;5307;42.548;22.968;2022-11-20T06:57:42;93204.44;;;14.31;100.00
10518;BME280;5307;42.548;22.968;2022-11-20T07:00:10;93202.66;;;14.28;100.00
10518;BME280;5307;42.548;22.968;2022-11-20T07:02:37;93198.91;;;14.25;100.00
10518;BME280;5307;42.548;22.968;2022-11-20T07:05:04;93210.38;;;14.24;100.00
10518;BME280;5307;42.548;22.968;2022-11-20T07:07:31;93216.88;;;14.26;100.00
10518;BME280;5307;42.548;22.968;2022-11-20T07:09:57;93217.41;;;14.31;100.00
10518;BME280;5307;42.548;22.968;2022-11-20T07:12:24;93219.94;;;14.34;100.00
10518;BME280;5307;42.548;22.968;2022-11-20T07:14:52;93205.66;;;14.30;100.00
10518;BME280;5307;42.548;22.968;2022-11-20T07:17:19;93216.66;;;14.30;100.00
10518;BME280;5307;42.548;22.968;2022-11-20T07:19:47;93221.66;;;14.32;100.00
10518;BME280;5307;42.548;22.968;2022-11-20T07:22:14;93215.66;;;14.27;100.00
10518;BME280;5307;42.548;22.968;2022-11-20T07:24:41;93231.66;;;14.35;100.00
10518;BME280;5307;42.548;22.968;2022-11-20T07:27:07;93221.66;;;14.32;100.00
10518;BME280;5307;42.548;22.968;2022-11-20T07:29:34;93226.72;;;14.39;100.00
10518;BME280;5307;42.548;22.968;2022-11-20T07:32:04;93235.22;;;14.41;100.00
10518;BME280;5307;42.548;22.968;2022-11-20T07:34:30;93225.75;;;14.42;100.00
10518;BME280;5307;42.548;22.968;2022-11-20T07:36:57;93219.31;;;14.45;100.00
10518;BME280;5307;42.548;22.968;2022-11-20T07:39:24;93218.06;;;14.46;100.00
10518;BME280;5307;42.548;22.968;2022-11-20T07:41:51;93215.31;;;14.46;100.00
10518;BME280;5307;42.548;22.968;2022-11-20T07:44:17;93221.56;;;14.46;100.00
10518;BME280;5307;42.548;22.968;2022-11-20T07:46:44;93227.88;;;14.52;100.00
10518;BME280;5307;42.548;22.968;2022-11-20T07:49:15;93234.88;;;14.53;100.00
10518;BME280;5307;42.548;22.968;2022-11-20T07:51:42;93240.88;;;14.58;100.00
10518;BME280;5307;42.548;22.968;2022-11-20T07:54:09;93243.63;;;14.58;100.00
10518;BME280;5307;42.548;22.968;2022-11-20T07:56:36;93260.91;;;14.64;100.00
10518;BME280;5307;42.548;22.968;2022-11-20T07:59:05;93264.63;;;14.61;100.00
10518;BME280;5307;42.548;22.968;2022-11-20T08:01:32;93272.84;;;14.55;100.00
10518;BME280;5307;42.548;22.968;2022-11-20T08:03:59;93267.03;;;14.47;100.00
10518;BME280;5307;42.548;22.968;2022-11-20T08:06:27;93261.94;;;14.40;100.00
10518;BME280;5307;42.548;22.968;2022-11-20T08:08:54;93265.38;;;14.35;100.00
10518;BME280;5307;42.548;22.968;2022-11-20T08:11:20;93268.09;;;14.30;100.00
10518;BME280;5307;42.548;22.968;2022-11-20T08:14:04;93268.53;;;14.22;100.00
10518;BME280;5307;42.548;22.968;2022-11-20T08:16:42;93258.50;;;14.19;100.00
10518;BME280;5307;42.548;22.968;2022-11-20T08:19:09;93267.44;;;14.14;100.00
10518;BME280;5307;42.548;22.968;2022-11-20T08:21:37;93262.94;;;14.11;100.00
10518;BME280;5307;42.548;22.968;2022-11-20T08:24:05;93269.81;;;14.01;100.00
10518;BME280;5307;42.548;22.968;2022-11-20T08:26:32;93274.28;;;13.99;100.00
10518;BME280;5307;42.548;22.968;2022-11-20T08:28:59;93267.16;;;13.86;100.00
10518;BME280;5307;42.548;22.968;2022-11-20T08:31:27;93283.16;;;13.88;100.00
10518;BME280;5307;42.548;22.968;2022-11-20T08:33:53;93293.06;;;13.80;100.00
10518;BME280;5307;42.548;22.968;2022-11-20T08:36:21;93302.50;;;13.79;100.00
10518;BME280;5307;42.548;22.968;2022-11-20T08:38:50;93290.72;;;13.73;100.00
10518;BME280;5307;42.548;22.968;2022-11-20T08:41:17;93295.50;;;13.78;100.00
10518;BME280;5307;42.548;22.968;2022-11-20T08:43:52;93307.03;;;13.82;100.00
10518;BME280;5307;42.548;22.968;2022-11-20T08:46:19;93311.41;;;13.74;100.00
10518;BME280;5307;42.548;22.968;2022-11-20T08:48:46;93304.97;;;13.77;100.00
10518;BME280;5307;42.548;22.968;2022-11-20T08:51:13;93306.47;;;13.78;100.00
10518;BME280;5307;42.548;22.968;2022-11-20T08:53:40;93303.41;;;13.70;100.00
10518;BME280;5307;42.548;22.968;2022-11-20T08:56:09;93305.22;;;13.79;100.00
10518;BME280;5307;42.548;22.968;2022-11-20T08:58:44;93299.47;;;13.77;100.00
10518;BME280;5307;42.548;22.968;2022-11-20T09:01:11;93311.91;;;13.72;100.00
10518;BME280;5307;42.548;22.968;2022-11-20T09:03:38;93300.66;;;13.70;100.00
10518;BME280;5307;42.548;22.968;2022-11-20T09:06:06;93302.97;;;13.77;100.00
10518;BME280;5307;42.548;22.968;2022-11-20T09:08:34;93288.94;;;13.70;100.00
10518;BME280;5307;42.548;22.968;2022-11-20T09:11:02;93292.22;;;13.74;100.00
10518;BME280;5307;42.548;22.968;2022-11-20T09:13:32;93293.06;;;13.80;100.00
10518;BME280;5307;42.548;22.968;2022-11-20T09:16:02;93290.00;;;13.78;100.00
10518;BME280;5307;42.548;22.968;2022-11-20T09:18:29;93281.38;;;13.85;100.00
10518;BME280;5307;42.548;22.968;2022-11-20T09:20:58;93284.13;;;13.85;100.00
10518;BME280;5307;42.548;22.968;2022-11-20T09:23:25;93290.34;;;13.85;100.00
10518;BME280;5307;42.548;22.968;2022-11-20T09:25:52;93265.13;;;13.81;100.00
10518;BME280;5307;42.548;22.968;2022-11-20T09:28:21;93244.72;;;13.88;100.00
10518;BME280;5307;42.548;22.968;2022-11-20T09:30:49;93232.75;;;13.91;100.00
10518;BME280;5307;42.548;22.968;2022-11-20T09:33:16;93220.28;;;13.90;100.00
10518;BME280;5307;42.548;22.968;2022-11-20T09:35:43;93230.19;;;13.82;100.00
10518;BME280;5307;42.548;22.968;2022-11-20T09:38:11;93246.16;;;13.83;100.00
10518;BME280;5307;42.548;22.968;2022-11-20T09:40:43;93251.59;;;13.78;100.00
10518;BME280;5307;42.548;22.968;2022-11-20T09:43:16;93251.06;;;13.74;100.00
10518;BME280;5307;42.548;22.968;2022-11-20T09:46:17;93256.53;;;13.74;100.00
10518;BME280;5307;42.548;22.968;2022-11-20T09:52:34;93252.41;;;13.84;100.00
10518;BME280;5307;42.548;22.968;2022-11-20T09:55:08;93250.97;;;13.88;100.00
10518;BME280;5307;42.548;22.968;2022-11-20T09:57:40;93257.47;;;13.91;100.00
10518;BME280;5307;42.548;22.968;2022-11-20T10:00:11;93263.53;;;13.95;100.00
10518;BME280;5307;42.548;22.968;2022-11-20T10:02:42;93254.03;;;13.96;100.00
10518;BME280;5307;42.548;22.968;2022-11-20T10:05:16;93243.59;;;14.00;100.00
10518;BME280;5307;42.548;22.968;2022-11-20T10:07:48;93257.09;;;14.04;100.00
10518;BME280;5307;42.548;22.968;2022-11-20T10:10:29;93250.59;;;14.01;100.00
10518;BME280;5307;42.548;22.968;2022-11-20T10:13:07;93270.78;;;13.98;100.00
10518;BME280;5307;42.548;22.968;2022-11-20T10:15:44;93285.41;;;13.89;100.00
10518;BME280;5307;42.548;22.968;2022-11-20T10:18:23;93278.09;;;13.81;100.00
10518;BME280;5307;42.548;22.968;2022-11-20T10:21:02;93278.50;;;13.74;100.00
10518;BME280;5307;42.548;22.968;2022-11-20T10:23:56;93286.16;;;13.49;100.00
10518;BME280;5307;42.548;22.968;2022-11-20T10:26:38;93256.06;;;13.34;100.00
10518;BME280;5307;42.548;22.968;2022-11-20T10:29:11;93280.25;;;13.36;100.00
10518;BME280;5307;42.548;22.968;2022-11-20T10:31:40;93300.75;;;13.20;100.00
10518;BME280;5307;42.548;22.968;2022-11-20T10:34:18;93294.63;;;13.11;100.00
10518;BME280;5307;42.548;22.968;2022-11-20T10:36:50;93269.72;;;12.79;100.00
10518;BME280;5307;42.548;22.968;2022-11-20T10:39:26;93220.59;;;12.40;100.00
10518;BME280;5307;42.548;22.968;2022-11-20T10:41:56;93230.66;;;12.64;100.00
10518;BME280;5307;42.548;22.968;2022-11-20T10:44:27;93248.31;;;12.63;100.00
10518;BME280;5307;42.548;22.968;2022-11-20T10:47:14;93244.09;;;12.32;100.00
10518;BME280;5307;42.548;22.968;2022-11-20T10:49:45;93234.66;;;12.04;100.00
10518;BME280;5307;42.548;22.968;2022-11-20T10:52:17;93227.00;;;11.93;100.00
10518;BME280;5307;42.548;22.968;2022-11-20T10:54:53;93229.56;;;11.82;100.00
10518;BME280;5307;42.548;22.968;2022-11-20T10:57:34;93222.13;;;11.82;100.00
10518;BME280;5307;42.548;22.968;2022-11-20T11:00:06;93218.72;;;11.87;100.00
10518;BME280;5307;42.548;22.968;2022-11-20T11:02:38;93209.19;;;11.98;100.00
10518;BME280;5307;42.548;22.968;2022-11-20T11:05:16;93196.16;;;11.93;100.00
10518;BME280;5307;42.548;22.968;2022-11-20T11:07:45;93201.56;;;12.02;100.00
10518;BME280;5307;42.548;22.968;2022-11-20T11:10:16;93202.03;;;12.15;100.00
10518;BME280;5307;42.548;22.968;2022-11-20T11:12:45;93193.41;;;12.07;100.00
10518;BME280;5307;42.548;22.968;2022-11-20T11:15:24;93205.59;;;11.92;100.00
10518;BME280;5307;42.548;22.968;2022-11-20T11:17:52;93205.78;;;12.03;100.00
10518;BME280;5307;42.548;22.968;2022-11-20T11:20:21;93209.19;;;11.98;100.00
10518;BME280;5307;42.548;22.968;2022-11-20T11:22:50;93217.97;;;12.02;100.00
10518;BME280;5307;42.548;22.968;2022-11-20T11:25:24;93225.69;;;12.18;100.00
10518;BME280;5307;42.548;22.968;2022-11-20T11:27:53;93227.50;;;12.21;100.00
10518;BME280;5307;42.548;22.968;2022-11-20T11:30:20;93221.81;;;12.10;100.00
10518;BME280;5307;42.548;22.968;2022-11-20T11:32:47;93208.44;;;12.12;100.00
10518;BME280;5307;42.548;22.968;2022-11-20T11:35:24;93230.63;;;12.14;100.00
10518;BME280;5307;42.548;22.968;2022-11-20T11:37:53;93244.31;;;12.14;100.00
10518;BME280;5307;42.548;22.968;2022-11-20T11:40:22;93235.81;;;12.12;100.00
10518;BME280;5307;42.548;22.968;2022-11-20T11:42:55;93248.28;;;12.13;100.00
10518;BME280;5307;42.548;22.968;2022-11-20T11:45:23;93241.19;;;12.21;100.00
10518;BME280;5307;42.548;22.968;2022-11-20T11:47:51;93234.88;;;12.15;100.00
10518;BME280;5307;42.548;22.968;2022-11-20T11:50:22;93256.19;;;12.11;100.00
10518;BME280;5307;42.548;22.968;2022-11-20T11:53:02;93246.28;;;12.28;100.00
10518;BME280;5307;42.548;22.968;2022-11-20T11:55:37;93240.91;;;12.19;100.00
10518;BME280;5307;42.548;22.968;2022-11-20T11:58:14;93238.06;;;12.28;100.00
10518;BME280;5307;42.548;22.968;2022-11-20T12:00:50;93245.53;;;12.28;100.00
10518;BME280;5307;42.548;22.968;2022-11-20T12:03:21;93235.97;;;12.23;100.00
10518;BME280;5307;42.548;22.968;2022-11-20T12:05:56;93233.91;;;12.33;100.00
10518;BME280;5307;42.548;22.968;2022-11-20T12:08:27;93224.00;;;12.35;100.00
10518;BME280;5307;42.548;22.968;2022-11-20T12:11:02;93223.16;;;12.29;100.00
10518;BME280;5307;42.548;22.968;2022-11-20T12:13:39;93223.72;;;12.33;100.00
10518;BME280;5307;42.548;22.968;2022-11-20T12:16:12;93211.81;;;12.36;100.00
10518;BME280;5307;42.548;22.968;2022-11-20T12:18:40;93213.03;;;12.35;100.00
10518;BME280;5307;42.548;22.968;2022-11-20T12:21:17;93209.06;;;12.36;100.00
10518;BME280;5307;42.548;22.968;2022-11-20T12:23:56;93213.31;;;12.37;100.00
10518;BME280;5307;42.548;22.968;2022-11-20T12:26:39;93217.47;;;12.47;100.00
10518;BME280;5307;42.548;22.968;2022-11-20T12:29:17;93224.72;;;12.51;100.00
10518;BME280;5307;42.548;22.968;2022-11-20T12:32:09;93219.34;;;12.56;100.00
10518;BME280;5307;42.548;22.968;2022-11-20T12:34:51;93212.34;;;12.55;100.00
10518;BME280;5307;42.548;22.968;2022-11-20T12:37:34;93215.56;;;12.54;100.00
10518;BME280;5307;42.548;22.968;2022-11-20T12:40:16;93228.63;;;12.44;100.00
10518;BME280;5307;42.548;22.968;2022-11-20T12:42:52;93238.63;;;12.47;100.00
10518;BME280;5307;42.548;22.968;2022-11-20T12:46:09;93226.63;;;12.44;100.00
10518;BME280;5307;42.548;22.968;2022-11-20T13:00:27;93205.78;;;12.32;100.00
10518;BME280;5307;42.548;22.968;2022-11-20T13:03:25;93206.59;;;12.38;100.00
10518;BME280;5307;42.548;22.968;2022-11-20T13:06:05;93203.22;;;12.43;100.00
10518;BME280;5307;42.548;22.968;2022-11-20T13:08:37;93192.13;;;12.53;100.00
10518;BME280;5307;42.548;22.968;2022-11-20T13:11:12;93202.16;;;12.56;100.00
10518;BME280;5307;42.548;22.968;2022-11-20T13:13:59;93193.66;;;12.54;100.00
10518;BME280;5307;42.548;22.968;2022-11-20T13:16:36;93192.56;;;12.66;100.00
10518;BME280;5307;42.548;22.968;2022-11-20T13:19:12;93202.03;;;12.65;100.00
10518;BME280;5307;42.548;22.968;2022-11-20T13:21:41;93201.75;;;12.63;100.00
10518;BME280;5307;42.548;22.968;2022-11-20T13:24:21;93182.66;;;12.68;100.00
10518;BME280;5307;42.548;22.968;2022-11-20T13:27:03;93193.41;;;12.72;100.00
10518;BME280;5307;42.548;22.968;2022-11-20T13:29:30;93185.25;;;12.77;100.00
10518;BME280;5307;42.548;22.968;2022-11-20T13:32:07;93189.34;;;12.82;100.00
10518;BME280;5307;42.548;22.968;2022-11-20T13:34:51;93193.16;;;12.90;100.00
10518;BME280;5307;42.548;22.968;2022-11-20T13:37:25;93200.16;;;12.91;100.00
10518;BME280;5307;42.548;22.968;2022-11-20T13:39:53;93201.47;;;12.96;100.00
10518;BME280;5307;42.548;22.968;2022-11-20T13:42:25;93194.75;;;12.97;100.00
10518;BME280;5307;42.548;22.968;2022-11-20T13:44:55;93194.34;;;13.04;100.00
10518;BME280;5307;42.548;22.968;2022-11-20T13:47:29;93192.88;;;13.08;100.00